sensor_id;sensor_type;location;lat;lon;timestamp;P1;durP1;ratioP1;P2;durP2;ratioP2
78382;SDS011;67668;52.294;4.692;2023-03-01T00:01:59;10.07;;;6.10;;
78382;SDS011;67668;52.294;4.692;2023-03-01T00:04:25;9.05;;;6.07;;
78382;SDS011;67668;52.294;4.692;2023-03-01T00:06:50;7.97;;;6.43;;
78382;SDS011;67668;52.294;4.692;2023-03-01T00:09:16;7.00;;;5.15;;
78382;SDS011;67668;52.294;4.692;2023-03-01T00:11:42;9.13;;;5.90;;
78382;SDS011;67668;52.294;4.692;2023-03-01T00:14:07;8.70;;;5.63;;
78382;SDS011;67668;52.294;4.692;2023-03-01T00:16:34;8.88;;;5.80;;
78382;SDS011;67668;52.294;4.692;2023-03-01T00:19:05;7.72;;;5.70;;
78382;SDS011;67668;52.294;4.692;2023-03-01T00:21:31;9.68;;;5.75;;
78382;SDS011;67668;52.294;4.692;2023-03-01T00:23:57;11.23;;;6.30;;
78382;SDS011;67668;52.294;4.692;2023-03-01T00:26:23;9.10;;;6.05;;
78382;SDS011;67668;52.294;4.692;2023-03-01T00:28:50;11.02;;;5.65;;
78382;SDS011;67668;52.294;4.692;2023-03-01T00:31:17;10.15;;;6.32;;
78382;SDS011;67668;52.294;4.692;2023-03-01T00:33:45;9.50;;;6.30;;
78382;SDS011;67668;52.294;4.692;2023-03-01T00:36:11;12.65;;;7.30;;
78382;SDS011;67668;52.294;4.692;2023-03-01T00:38:39;11.57;;;6.43;;
78382;SDS011;67668;52.294;4.692;2023-03-01T00:41:08;11.95;;;6.75;;
78382;SDS011;67668;52.294;4.692;2023-03-01T00:43:34;11.02;;;5.85;;
78382;SDS011;67668;52.294;4.692;2023-03-01T00:46:07;10.68;;;6.82;;
78382;SDS011;67668;52.294;4.692;2023-03-01T00:48:34;11.98;;;6.85;;
78382;SDS011;67668;52.294;4.692;2023-03-01T00:53:52;10.93;;;5.95;;
78382;SDS011;67668;52.294;4.692;2023-03-01T00:56:19;12.70;;;6.72;;
78382;SDS011;67668;52.294;4.692;2023-03-01T00:58:45;9.85;;;6.25;;
78382;SDS011;67668;52.294;4.692;2023-03-01T01:03:47;10.38;;;7.18;;
78382;SDS011;67668;52.294;4.692;2023-03-01T01:06:18;12.35;;;7.00;;
78382;SDS011;67668;52.294;4.692;2023-03-01T01:08:45;10.68;;;6.68;;
78382;SDS011;67668;52.294;4.692;2023-03-01T01:11:11;11.07;;;6.15;;
78382;SDS011;67668;52.294;4.692;2023-03-01T01:13:37;11.98;;;6.95;;
78382;SDS011;67668;52.294;4.692;2023-03-01T01:16:03;11.45;;;6.75;;
78382;SDS011;67668;52.294;4.692;2023-03-01T01:18:29;9.43;;;7.03;;
78382;SDS011;67668;52.294;4.692;2023-03-01T01:20:55;10.65;;;6.80;;
78382;SDS011;67668;52.294;4.692;2023-03-01T01:23:20;10.52;;;7.68;;
78382;SDS011;67668;52.294;4.692;2023-03-01T01:25:46;11.00;;;6.47;;
78382;SDS011;67668;52.294;4.692;2023-03-01T01:28:11;14.77;;;7.45;;
78382;SDS011;67668;52.294;4.692;2023-03-01T01:30:36;12.10;;;7.13;;
78382;SDS011;67668;52.294;4.692;2023-03-01T01:33:02;11.93;;;6.67;;
78382;SDS011;67668;52.294;4.692;2023-03-01T01:35:27;13.35;;;7.75;;
78382;SDS011;67668;52.294;4.692;2023-03-01T01:37:53;13.38;;;7.57;;
78382;SDS011;67668;52.294;4.692;2023-03-01T01:40:18;10.53;;;7.03;;
78382;SDS011;67668;52.294;4.692;2023-03-01T01:42:44;13.30;;;7.60;;
78382;SDS011;67668;52.294;4.692;2023-03-01T01:48:06;12.38;;;6.93;;
78382;SDS011;67668;52.294;4.692;2023-03-01T01:50:41;12.10;;;7.53;;
78382;SDS011;67668;52.294;4.692;2023-03-01T01:53:10;11.70;;;7.30;;
78382;SDS011;67668;52.294;4.692;2023-03-01T01:55:41;10.98;;;7.40;;
78382;SDS011;67668;52.294;4.692;2023-03-01T01:58:11;13.45;;;8.00;;
78382;SDS011;67668;52.294;4.692;2023-03-01T02:00:40;14.27;;;8.45;;
78382;SDS011;67668;52.294;4.692;2023-03-01T02:03:10;14.40;;;8.95;;
78382;SDS011;67668;52.294;4.692;2023-03-01T02:08:25;13.52;;;8.40;;
78382;SDS011;67668;52.294;4.692;2023-03-01T02:10:55;12.77;;;7.50;;
78382;SDS011;67668;52.294;4.692;2023-03-01T02:13:22;12.18;;;8.43;;
78382;SDS011;67668;52.294;4.692;2023-03-01T02:15:48;13.68;;;8.48;;
78382;SDS011;67668;52.294;4.692;2023-03-01T02:18:14;13.70;;;8.57;;
78382;SDS011;67668;52.294;4.692;2023-03-01T02:23:30;15.60;;;9.00;;
78382;SDS011;67668;52.294;4.692;2023-03-01T02:26:01;14.18;;;9.05;;
78382;SDS011;67668;52.294;4.692;2023-03-01T02:28:35;15.38;;;8.02;;
78382;SDS011;67668;52.294;4.692;2023-03-01T02:31:03;17.42;;;8.90;;
78382;SDS011;67668;52.294;4.692;2023-03-01T02:33:49;16.20;;;8.32;;
78382;SDS011;67668;52.294;4.692;2023-03-01T02:36:26;14.90;;;9.15;;
78382;SDS011;67668;52.294;4.692;2023-03-01T02:38:57;13.00;;;8.25;;
78382;SDS011;67668;52.294;4.692;2023-03-01T02:41:25;16.10;;;8.05;;
78382;SDS011;67668;52.294;4.692;2023-03-01T02:43:54;18.35;;;9.02;;
78382;SDS011;67668;52.294;4.692;2023-03-01T02:46:21;14.70;;;8.68;;
78382;SDS011;67668;52.294;4.692;2023-03-01T02:48:50;15.85;;;8.73;;
78382;SDS011;67668;52.294;4.692;2023-03-01T02:56:48;16.40;;;9.45;;
78382;SDS011;67668;52.294;4.692;2023-03-01T02:59:14;16.90;;;9.50;;
78382;SDS011;67668;52.294;4.692;2023-03-01T03:01:41;15.18;;;8.80;;
78382;SDS011;67668;52.294;4.692;2023-03-01T03:04:08;16.50;;;9.57;;
78382;SDS011;67668;52.294;4.692;2023-03-01T03:06:36;14.93;;;8.48;;
78382;SDS011;67668;52.294;4.692;2023-03-01T03:09:03;16.05;;;9.93;;
78382;SDS011;67668;52.294;4.692;2023-03-01T03:11:30;14.18;;;9.48;;
78382;SDS011;67668;52.294;4.692;2023-03-01T03:13:57;14.27;;;8.20;;
78382;SDS011;67668;52.294;4.692;2023-03-01T03:16:22;17.90;;;10.18;;
78382;SDS011;67668;52.294;4.692;2023-03-01T03:18:48;16.17;;;9.27;;
78382;SDS011;67668;52.294;4.692;2023-03-01T03:21:14;14.43;;;9.25;;
78382;SDS011;67668;52.294;4.692;2023-03-01T03:23:40;21.23;;;9.73;;
78382;SDS011;67668;52.294;4.692;2023-03-01T03:26:05;14.73;;;8.87;;
78382;SDS011;67668;52.294;4.692;2023-03-01T03:28:34;15.48;;;8.98;;
78382;SDS011;67668;52.294;4.692;2023-03-01T03:31:00;17.15;;;10.57;;
78382;SDS011;67668;52.294;4.692;2023-03-01T03:33:29;17.05;;;9.88;;
78382;SDS011;67668;52.294;4.692;2023-03-01T03:35:55;19.30;;;9.85;;
78382;SDS011;67668;52.294;4.692;2023-03-01T03:38:20;19.85;;;9.02;;
78382;SDS011;67668;52.294;4.692;2023-03-01T03:41:00;19.00;;;9.35;;
78382;SDS011;67668;52.294;4.692;2023-03-01T03:43:28;14.10;;;8.95;;
78382;SDS011;67668;52.294;4.692;2023-03-01T03:45:55;16.75;;;9.93;;
78382;SDS011;67668;52.294;4.692;2023-03-01T03:48:22;19.48;;;11.00;;
78382;SDS011;67668;52.294;4.692;2023-03-01T03:50:49;19.70;;;10.23;;
78382;SDS011;67668;52.294;4.692;2023-03-01T03:53:16;17.48;;;10.05;;
78382;SDS011;67668;52.294;4.692;2023-03-01T03:58:09;21.95;;;10.70;;
78382;SDS011;67668;52.294;4.692;2023-03-01T04:00:39;20.90;;;10.90;;
78382;SDS011;67668;52.294;4.692;2023-03-01T04:03:06;25.88;;;12.50;;
78382;SDS011;67668;52.294;4.692;2023-03-01T04:05:33;26.15;;;13.02;;
78382;SDS011;67668;52.294;4.692;2023-03-01T04:07:59;26.80;;;11.50;;
78382;SDS011;67668;52.294;4.692;2023-03-01T04:10:28;27.77;;;11.63;;
78382;SDS011;67668;52.294;4.692;2023-03-01T04:12:55;25.50;;;12.27;;
78382;SDS011;67668;52.294;4.692;2023-03-01T04:15:21;25.85;;;11.77;;
78382;SDS011;67668;52.294;4.692;2023-03-01T04:17:49;27.35;;;11.85;;
78382;SDS011;67668;52.294;4.692;2023-03-01T04:20:17;26.85;;;12.73;;
78382;SDS011;67668;52.294;4.692;2023-03-01T04:25:42;22.45;;;11.95;;
78382;SDS011;67668;52.294;4.692;2023-03-01T04:28:14;30.17;;;12.73;;
78382;SDS011;67668;52.294;4.692;2023-03-01T04:30:40;26.40;;;13.20;;
78382;SDS011;67668;52.294;4.692;2023-03-01T04:33:10;23.00;;;11.77;;
78382;SDS011;67668;52.294;4.692;2023-03-01T04:35:36;21.27;;;10.88;;
78382;SDS011;67668;52.294;4.692;2023-03-01T04:38:03;20.65;;;11.95;;
78382;SDS011;67668;52.294;4.692;2023-03-01T04:40:30;18.58;;;10.18;;
78382;SDS011;67668;52.294;4.692;2023-03-01T04:42:55;18.13;;;10.15;;
78382;SDS011;67668;52.294;4.692;2023-03-01T04:45:21;18.50;;;9.95;;
78382;SDS011;67668;52.294;4.692;2023-03-01T04:47:46;14.73;;;9.88;;
78382;SDS011;67668;52.294;4.692;2023-03-01T04:50:13;14.85;;;9.07;;
78382;SDS011;67668;52.294;4.692;2023-03-01T04:52:41;15.75;;;8.88;;
78382;SDS011;67668;52.294;4.692;2023-03-01T04:55:07;19.05;;;9.98;;
78382;SDS011;67668;52.294;4.692;2023-03-01T04:57:33;14.80;;;9.38;;
78382;SDS011;67668;52.294;4.692;2023-03-01T04:59:59;17.33;;;9.90;;
78382;SDS011;67668;52.294;4.692;2023-03-01T05:02:24;18.60;;;9.07;;
78382;SDS011;67668;52.294;4.692;2023-03-01T05:04:52;15.43;;;8.50;;
78382;SDS011;67668;52.294;4.692;2023-03-01T05:07:22;15.63;;;11.07;;
78382;SDS011;67668;52.294;4.692;2023-03-01T05:09:49;19.88;;;10.38;;
78382;SDS011;67668;52.294;4.692;2023-03-01T05:12:15;17.37;;;10.10;;
78382;SDS011;67668;52.294;4.692;2023-03-01T05:14:40;14.87;;;8.63;;
78382;SDS011;67668;52.294;4.692;2023-03-01T05:17:06;14.73;;;9.55;;
78382;SDS011;67668;52.294;4.692;2023-03-01T05:19:32;19.25;;;9.95;;
78382;SDS011;67668;52.294;4.692;2023-03-01T05:21:58;14.07;;;8.57;;
78382;SDS011;67668;52.294;4.692;2023-03-01T05:24:27;17.08;;;9.30;;
78382;SDS011;67668;52.294;4.692;2023-03-01T05:29:19;18.20;;;8.40;;
78382;SDS011;67668;52.294;4.692;2023-03-01T05:31:59;17.30;;;8.52;;
78382;SDS011;67668;52.294;4.692;2023-03-01T05:34:26;15.98;;;9.48;;
78382;SDS011;67668;52.294;4.692;2023-03-01T05:36:57;12.52;;;8.63;;
78382;SDS011;67668;52.294;4.692;2023-03-01T05:39:23;14.18;;;8.55;;
78382;SDS011;67668;52.294;4.692;2023-03-01T05:41:54;11.98;;;8.05;;
78382;SDS011;67668;52.294;4.692;2023-03-01T05:44:20;16.00;;;9.30;;
78382;SDS011;67668;52.294;4.692;2023-03-01T05:46:46;15.63;;;9.23;;
78382;SDS011;67668;52.294;4.692;2023-03-01T05:49:12;16.75;;;8.18;;
78382;SDS011;67668;52.294;4.692;2023-03-01T05:51:41;12.93;;;8.32;;
78382;SDS011;67668;52.294;4.692;2023-03-01T05:54:07;14.05;;;8.10;;
78382;SDS011;67668;52.294;4.692;2023-03-01T05:56:36;11.30;;;7.55;;
78382;SDS011;67668;52.294;4.692;2023-03-01T05:59:02;10.75;;;7.22;;
78382;SDS011;67668;52.294;4.692;2023-03-01T06:01:30;12.10;;;7.78;;
78382;SDS011;67668;52.294;4.692;2023-03-01T06:03:56;12.15;;;7.38;;
78382;SDS011;67668;52.294;4.692;2023-03-01T06:06:21;10.90;;;6.43;;
78382;SDS011;67668;52.294;4.692;2023-03-01T06:08:47;11.00;;;7.13;;
78382;SDS011;67668;52.294;4.692;2023-03-01T06:11:13;11.90;;;7.05;;
78382;SDS011;67668;52.294;4.692;2023-03-01T06:13:38;10.40;;;6.63;;
78382;SDS011;67668;52.294;4.692;2023-03-01T06:16:07;10.43;;;6.83;;
78382;SDS011;67668;52.294;4.692;2023-03-01T06:18:32;11.68;;;7.15;;
78382;SDS011;67668;52.294;4.692;2023-03-01T06:20:58;12.35;;;7.53;;
78382;SDS011;67668;52.294;4.692;2023-03-01T06:23:23;11.13;;;6.85;;
78382;SDS011;67668;52.294;4.692;2023-03-01T06:25:49;11.73;;;6.72;;
78382;SDS011;67668;52.294;4.692;2023-03-01T06:28:15;9.93;;;6.38;;
78382;SDS011;67668;52.294;4.692;2023-03-01T06:30:40;12.57;;;8.38;;
78382;SDS011;67668;52.294;4.692;2023-03-01T06:33:05;11.20;;;6.23;;
78382;SDS011;67668;52.294;4.692;2023-03-01T06:35:31;10.20;;;6.17;;
78382;SDS011;67668;52.294;4.692;2023-03-01T06:37:57;11.65;;;6.55;;
78382;SDS011;67668;52.294;4.692;2023-03-01T06:40:24;9.82;;;6.38;;
78382;SDS011;67668;52.294;4.692;2023-03-01T06:42:50;9.25;;;6.05;;
78382;SDS011;67668;52.294;4.692;2023-03-01T06:45:16;13.07;;;6.72;;
78382;SDS011;67668;52.294;4.692;2023-03-01T06:47:43;11.70;;;7.57;;
78382;SDS011;67668;52.294;4.692;2023-03-01T06:50:09;10.13;;;6.30;;
78382;SDS011;67668;52.294;4.692;2023-03-01T06:52:35;11.95;;;6.22;;
78382;SDS011;67668;52.294;4.692;2023-03-01T06:55:01;13.02;;;6.93;;
78382;SDS011;67668;52.294;4.692;2023-03-01T06:57:26;11.02;;;7.28;;
78382;SDS011;67668;52.294;4.692;2023-03-01T06:59:52;12.00;;;6.97;;
78382;SDS011;67668;52.294;4.692;2023-03-01T07:02:17;14.03;;;7.87;;
78382;SDS011;67668;52.294;4.692;2023-03-01T07:04:43;15.52;;;7.68;;
78382;SDS011;67668;52.294;4.692;2023-03-01T07:07:08;14.70;;;8.18;;
78382;SDS011;67668;52.294;4.692;2023-03-01T07:09:34;12.55;;;7.63;;
78382;SDS011;67668;52.294;4.692;2023-03-01T07:11:59;13.17;;;8.00;;
78382;SDS011;67668;52.294;4.692;2023-03-01T07:14:25;13.82;;;8.27;;
78382;SDS011;67668;52.294;4.692;2023-03-01T07:16:51;13.05;;;6.70;;
78382;SDS011;67668;52.294;4.692;2023-03-01T07:19:19;15.68;;;7.82;;
78382;SDS011;67668;52.294;4.692;2023-03-01T07:21:45;13.95;;;8.05;;
78382;SDS011;67668;52.294;4.692;2023-03-01T07:24:11;15.57;;;8.55;;
78382;SDS011;67668;52.294;4.692;2023-03-01T07:26:36;13.27;;;8.57;;
78382;SDS011;67668;52.294;4.692;2023-03-01T07:29:02;13.75;;;8.05;;
78382;SDS011;67668;52.294;4.692;2023-03-01T07:31:29;14.60;;;8.82;;
78382;SDS011;67668;52.294;4.692;2023-03-01T07:33:55;13.48;;;7.40;;
78382;SDS011;67668;52.294;4.692;2023-03-01T07:36:21;13.52;;;8.02;;
78382;SDS011;67668;52.294;4.692;2023-03-01T07:38:46;12.77;;;7.75;;
78382;SDS011;67668;52.294;4.692;2023-03-01T07:41:12;14.57;;;7.83;;
78382;SDS011;67668;52.294;4.692;2023-03-01T07:43:37;12.90;;;7.57;;
78382;SDS011;67668;52.294;4.692;2023-03-01T07:46:03;12.07;;;8.03;;
78382;SDS011;67668;52.294;4.692;2023-03-01T07:48:29;14.70;;;7.80;;
78382;SDS011;67668;52.294;4.692;2023-03-01T07:50:59;15.40;;;8.73;;
78382;SDS011;67668;52.294;4.692;2023-03-01T07:53:29;14.35;;;8.60;;
78382;SDS011;67668;52.294;4.692;2023-03-01T07:56:09;14.75;;;8.73;;
78382;SDS011;67668;52.294;4.692;2023-03-01T07:58:36;13.55;;;8.52;;
78382;SDS011;67668;52.294;4.692;2023-03-01T08:01:06;15.57;;;8.93;;
78382;SDS011;67668;52.294;4.692;2023-03-01T08:03:34;14.98;;;9.15;;
78382;SDS011;67668;52.294;4.692;2023-03-01T08:08:26;14.75;;;8.30;;
78382;SDS011;67668;52.294;4.692;2023-03-01T08:10:51;15.80;;;8.77;;
78382;SDS011;67668;52.294;4.692;2023-03-01T08:13:17;17.08;;;9.85;;
78382;SDS011;67668;52.294;4.692;2023-03-01T08:15:47;15.32;;;8.45;;
78382;SDS011;67668;52.294;4.692;2023-03-01T08:18:14;15.43;;;8.85;;
78382;SDS011;67668;52.294;4.692;2023-03-01T08:20:39;18.42;;;10.30;;
78382;SDS011;67668;52.294;4.692;2023-03-01T08:23:05;18.97;;;9.10;;
78382;SDS011;67668;52.294;4.692;2023-03-01T08:25:30;16.65;;;9.90;;
78382;SDS011;67668;52.294;4.692;2023-03-01T08:27:55;18.67;;;9.88;;
78382;SDS011;67668;52.294;4.692;2023-03-01T08:30:21;17.42;;;9.15;;
78382;SDS011;67668;52.294;4.692;2023-03-01T08:32:48;19.77;;;10.30;;
78382;SDS011;67668;52.294;4.692;2023-03-01T08:35:14;15.68;;;10.00;;
78382;SDS011;67668;52.294;4.692;2023-03-01T08:37:40;16.70;;;10.13;;
78382;SDS011;67668;52.294;4.692;2023-03-01T08:40:05;16.77;;;10.30;;
78382;SDS011;67668;52.294;4.692;2023-03-01T08:42:32;19.70;;;11.13;;
78382;SDS011;67668;52.294;4.692;2023-03-01T08:44:57;17.40;;;10.32;;
78382;SDS011;67668;52.294;4.692;2023-03-01T08:47:23;16.42;;;9.40;;
78382;SDS011;67668;52.294;4.692;2023-03-01T08:49:49;16.13;;;9.85;;
78382;SDS011;67668;52.294;4.692;2023-03-01T08:52:15;19.20;;;10.63;;
78382;SDS011;67668;52.294;4.692;2023-03-01T08:54:40;16.37;;;10.67;;
78382;SDS011;67668;52.294;4.692;2023-03-01T08:57:06;17.05;;;9.68;;
78382;SDS011;67668;52.294;4.692;2023-03-01T08:59:31;18.33;;;10.80;;
78382;SDS011;67668;52.294;4.692;2023-03-01T09:02:04;17.05;;;9.63;;
78382;SDS011;67668;52.294;4.692;2023-03-01T09:04:35;19.85;;;11.00;;
78382;SDS011;67668;52.294;4.692;2023-03-01T09:07:00;24.77;;;11.87;;
78382;SDS011;67668;52.294;4.692;2023-03-01T09:09:26;22.08;;;11.38;;
78382;SDS011;67668;52.294;4.692;2023-03-01T09:11:51;18.70;;;11.93;;
78382;SDS011;67668;52.294;4.692;2023-03-01T09:14:16;18.87;;;10.57;;
78382;SDS011;67668;52.294;4.692;2023-03-01T09:16:42;20.77;;;11.63;;
78382;SDS011;67668;52.294;4.692;2023-03-01T09:19:07;21.27;;;11.35;;
78382;SDS011;67668;52.294;4.692;2023-03-01T09:21:33;21.50;;;12.82;;
78382;SDS011;67668;52.294;4.692;2023-03-01T09:23:58;20.27;;;11.57;;
78382;SDS011;67668;52.294;4.692;2023-03-01T09:26:23;22.17;;;12.43;;
78382;SDS011;67668;52.294;4.692;2023-03-01T09:28:50;24.48;;;13.38;;
78382;SDS011;67668;52.294;4.692;2023-03-01T09:31:18;27.45;;;13.20;;
78382;SDS011;67668;52.294;4.692;2023-03-01T09:33:48;23.75;;;12.98;;
78382;SDS011;67668;52.294;4.692;2023-03-01T09:36:16;20.20;;;12.18;;
78382;SDS011;67668;52.294;4.692;2023-03-01T09:38:46;22.02;;;12.82;;
78382;SDS011;67668;52.294;4.692;2023-03-01T09:41:19;21.48;;;11.35;;
78382;SDS011;67668;52.294;4.692;2023-03-01T09:43:59;21.15;;;11.60;;
78382;SDS011;67668;52.294;4.692;2023-03-01T09:46:29;22.20;;;13.25;;
78382;SDS011;67668;52.294;4.692;2023-03-01T09:49:01;26.95;;;15.27;;
78382;SDS011;67668;52.294;4.692;2023-03-01T09:51:35;23.70;;;14.68;;
78382;SDS011;67668;52.294;4.692;2023-03-01T09:54:02;25.33;;;13.88;;
78382;SDS011;67668;52.294;4.692;2023-03-01T09:59:23;30.55;;;16.90;;
78382;SDS011;67668;52.294;4.692;2023-03-01T10:04:45;31.70;;;15.70;;
78382;SDS011;67668;52.294;4.692;2023-03-01T10:10:27;28.60;;;15.43;;
78382;SDS011;67668;52.294;4.692;2023-03-01T10:12:57;32.65;;;16.88;;
78382;SDS011;67668;52.294;4.692;2023-03-01T10:15:34;30.92;;;16.50;;
78382;SDS011;67668;52.294;4.692;2023-03-01T10:18:10;35.80;;;17.90;;
78382;SDS011;67668;52.294;4.692;2023-03-01T10:23:23;32.35;;;17.13;;
78382;SDS011;67668;52.294;4.692;2023-03-01T10:31:07;37.97;;;15.90;;
78382;SDS011;67668;52.294;4.692;2023-03-01T10:33:38;38.63;;;16.08;;
78382;SDS011;67668;52.294;4.692;2023-03-01T10:36:07;31.75;;;14.82;;
78382;SDS011;67668;52.294;4.692;2023-03-01T10:38:56;32.00;;;14.32;;
78382;SDS011;67668;52.294;4.692;2023-03-01T10:41:22;22.13;;;13.27;;
78382;SDS011;67668;52.294;4.692;2023-03-01T10:43:56;24.95;;;12.65;;
78382;SDS011;67668;52.294;4.692;2023-03-01T10:46:36;20.58;;;12.05;;
78382;SDS011;67668;52.294;4.692;2023-03-01T10:49:06;23.20;;;12.95;;
78382;SDS011;67668;52.294;4.692;2023-03-01T10:51:46;16.48;;;9.32;;
78382;SDS011;67668;52.294;4.692;2023-03-01T10:54:27;19.90;;;11.07;;
78382;SDS011;67668;52.294;4.692;2023-03-01T10:56:54;16.48;;;9.88;;
78382;SDS011;67668;52.294;4.692;2023-03-01T10:59:26;15.68;;;9.48;;
78382;SDS011;67668;52.294;4.692;2023-03-01T11:04:40;18.83;;;10.38;;
78382;SDS011;67668;52.294;4.692;2023-03-01T11:07:22;18.02;;;10.35;;
78382;SDS011;67668;52.294;4.692;2023-03-01T11:12:15;11.70;;;5.23;;
78382;SDS011;67668;52.294;4.692;2023-03-01T11:14:53;7.88;;;5.25;;
78382;SDS011;67668;52.294;4.692;2023-03-01T11:17:25;10.30;;;5.50;;
78382;SDS011;67668;52.294;4.692;2023-03-01T11:20:00;6.43;;;4.70;;
78382;SDS011;67668;52.294;4.692;2023-03-01T11:22:29;8.35;;;5.55;;
78382;SDS011;67668;52.294;4.692;2023-03-01T11:24:57;8.27;;;5.80;;
78382;SDS011;67668;52.294;4.692;2023-03-01T11:27:25;8.15;;;4.78;;
78382;SDS011;67668;52.294;4.692;2023-03-01T11:32:26;7.78;;;5.75;;
78382;SDS011;67668;52.294;4.692;2023-03-01T11:34:57;8.10;;;5.30;;
78382;SDS011;67668;52.294;4.692;2023-03-01T11:37:33;9.82;;;5.78;;
78382;SDS011;67668;52.294;4.692;2023-03-01T11:40:17;10.00;;;6.50;;
78382;SDS011;67668;52.294;4.692;2023-03-01T11:51:38;12.90;;;7.90;;
78382;SDS011;67668;52.294;4.692;2023-03-01T11:57:04;14.00;;;8.52;;
78382;SDS011;67668;52.294;4.692;2023-03-01T11:59:45;12.95;;;8.13;;
78382;SDS011;67668;52.294;4.692;2023-03-01T12:24:42;10.50;;;6.57;;
78382;SDS011;67668;52.294;4.692;2023-03-01T12:27:11;12.48;;;7.45;;
78382;SDS011;67668;52.294;4.692;2023-03-01T12:30:15;11.07;;;7.03;;
78382;SDS011;67668;52.294;4.692;2023-03-01T12:32:59;11.05;;;7.18;;
78382;SDS011;67668;52.294;4.692;2023-03-01T12:38:49;12.13;;;6.82;;
78382;SDS011;67668;52.294;4.692;2023-03-01T12:41:28;12.43;;;7.45;;
78382;SDS011;67668;52.294;4.692;2023-03-01T12:49:35;12.02;;;7.20;;
78382;SDS011;67668;52.294;4.692;2023-03-01T12:52:14;10.70;;;6.63;;
78382;SDS011;67668;52.294;4.692;2023-03-01T12:54:46;11.02;;;7.20;;
78382;SDS011;67668;52.294;4.692;2023-03-01T13:00:27;10.65;;;6.88;;
78382;SDS011;67668;52.294;4.692;2023-03-01T13:05:39;10.43;;;6.70;;
78382;SDS011;67668;52.294;4.692;2023-03-01T13:08:23;15.57;;;7.28;;
78382;SDS011;67668;52.294;4.692;2023-03-01T13:11:11;12.23;;;7.47;;
78382;SDS011;67668;52.294;4.692;2023-03-01T13:13:42;13.23;;;7.15;;
78382;SDS011;67668;52.294;4.692;2023-03-01T13:21:50;10.23;;;6.30;;
78382;SDS011;67668;52.294;4.692;2023-03-01T13:24:29;11.80;;;7.13;;
78382;SDS011;67668;52.294;4.692;2023-03-01T13:27:09;9.95;;;7.15;;
78382;SDS011;67668;52.294;4.692;2023-03-01T13:29:47;12.00;;;7.32;;
78382;SDS011;67668;52.294;4.692;2023-03-01T13:32:33;13.18;;;6.38;;
78382;SDS011;67668;52.294;4.692;2023-03-01T13:37:44;10.93;;;6.53;;
78382;SDS011;67668;52.294;4.692;2023-03-01T13:42:55;10.55;;;7.13;;
78382;SDS011;67668;52.294;4.692;2023-03-01T13:45:40;10.40;;;6.40;;
78382;SDS011;67668;52.294;4.692;2023-03-01T13:50:54;10.00;;;6.30;;
78382;SDS011;67668;52.294;4.692;2023-03-01T13:53:24;12.52;;;6.78;;
78382;SDS011;67668;52.294;4.692;2023-03-01T13:56:06;10.88;;;6.32;;
78382;SDS011;67668;52.294;4.692;2023-03-01T14:04:00;10.32;;;6.90;;
78382;SDS011;67668;52.294;4.692;2023-03-01T14:06:27;9.60;;;6.00;;
78382;SDS011;67668;52.294;4.692;2023-03-01T14:09:22;11.00;;;6.80;;
78382;SDS011;67668;52.294;4.692;2023-03-01T14:19:43;11.18;;;6.57;;
78382;SDS011;67668;52.294;4.692;2023-03-01T14:22:19;12.48;;;6.78;;
78382;SDS011;67668;52.294;4.692;2023-03-01T14:24:48;10.48;;;7.13;;
78382;SDS011;67668;52.294;4.692;2023-03-01T14:27:17;11.38;;;6.70;;
78382;SDS011;67668;52.294;4.692;2023-03-01T14:29:44;14.60;;;7.75;;
78382;SDS011;67668;52.294;4.692;2023-03-01T14:34:53;10.00;;;6.90;;
78382;SDS011;67668;52.294;4.692;2023-03-01T14:39:47;11.45;;;6.53;;
78382;SDS011;67668;52.294;4.692;2023-03-01T14:42:13;10.27;;;6.20;;
78382;SDS011;67668;52.294;4.692;2023-03-01T14:44:40;9.00;;;5.53;;
78382;SDS011;67668;52.294;4.692;2023-03-01T14:47:15;16.02;;;6.00;;
78382;SDS011;67668;52.294;4.692;2023-03-01T14:49:49;8.60;;;5.57;;
78382;SDS011;67668;52.294;4.692;2023-03-01T14:52:21;10.43;;;5.95;;
78382;SDS011;67668;52.294;4.692;2023-03-01T14:54:51;10.18;;;5.90;;
78382;SDS011;67668;52.294;4.692;2023-03-01T14:57:19;11.13;;;6.18;;
78382;SDS011;67668;52.294;4.692;2023-03-01T14:59:50;9.15;;;5.20;;
78382;SDS011;67668;52.294;4.692;2023-03-01T15:02:20;7.88;;;4.95;;
78382;SDS011;67668;52.294;4.692;2023-03-01T15:04:57;8.73;;;4.65;;
78382;SDS011;67668;52.294;4.692;2023-03-01T15:07:27;9.38;;;5.35;;
78382;SDS011;67668;52.294;4.692;2023-03-01T15:09:56;10.23;;;5.05;;
78382;SDS011;67668;52.294;4.692;2023-03-01T15:14:58;10.43;;;5.97;;
78382;SDS011;67668;52.294;4.692;2023-03-01T15:19:55;10.23;;;5.72;;
78382;SDS011;67668;52.294;4.692;2023-03-01T15:22:20;8.43;;;5.18;;
78382;SDS011;67668;52.294;4.692;2023-03-01T15:24:48;9.48;;;6.07;;
78382;SDS011;67668;52.294;4.692;2023-03-01T15:27:21;9.70;;;5.80;;
78382;SDS011;67668;52.294;4.692;2023-03-01T15:29:49;7.80;;;5.25;;
78382;SDS011;67668;52.294;4.692;2023-03-01T15:32:30;8.18;;;4.88;;
78382;SDS011;67668;52.294;4.692;2023-03-01T15:34:59;8.88;;;5.15;;
78382;SDS011;67668;52.294;4.692;2023-03-01T15:37:38;9.50;;;5.80;;
78382;SDS011;67668;52.294;4.692;2023-03-01T15:42:59;8.90;;;4.80;;
78382;SDS011;67668;52.294;4.692;2023-03-01T15:45:27;8.15;;;4.80;;
78382;SDS011;67668;52.294;4.692;2023-03-01T15:47:57;8.13;;;4.90;;
78382;SDS011;67668;52.294;4.692;2023-03-01T15:50:29;7.63;;;4.18;;
78382;SDS011;67668;52.294;4.692;2023-03-01T15:52:55;9.25;;;4.57;;
78382;SDS011;67668;52.294;4.692;2023-03-01T15:55:30;6.63;;;4.25;;
78382;SDS011;67668;52.294;4.692;2023-03-01T15:58:20;7.97;;;4.10;;
78382;SDS011;67668;52.294;4.692;2023-03-01T16:00:46;9.13;;;4.50;;
78382;SDS011;67668;52.294;4.692;2023-03-01T16:03:13;6.72;;;4.15;;
78382;SDS011;67668;52.294;4.692;2023-03-01T16:05:39;5.95;;;3.95;;
78382;SDS011;67668;52.294;4.692;2023-03-01T16:10:31;9.02;;;4.30;;
78382;SDS011;67668;52.294;4.692;2023-03-01T16:12:58;9.05;;;4.78;;
78382;SDS011;67668;52.294;4.692;2023-03-01T16:17:52;13.52;;;4.90;;
78382;SDS011;67668;52.294;4.692;2023-03-01T16:22:44;6.93;;;4.38;;
78382;SDS011;67668;52.294;4.692;2023-03-01T16:25:10;8.90;;;4.32;;
78382;SDS011;67668;52.294;4.692;2023-03-01T16:27:37;8.07;;;4.30;;
78382;SDS011;67668;52.294;4.692;2023-03-01T16:32:32;6.07;;;3.63;;
78382;SDS011;67668;52.294;4.692;2023-03-01T16:34:57;8.55;;;4.28;;
78382;SDS011;67668;52.294;4.692;2023-03-01T16:39:48;9.10;;;4.77;;
78382;SDS011;67668;52.294;4.692;2023-03-01T16:42:16;7.30;;;3.92;;
78382;SDS011;67668;52.294;4.692;2023-03-01T16:44:42;6.32;;;4.00;;
78382;SDS011;67668;52.294;4.692;2023-03-01T16:49:33;7.87;;;4.33;;
78382;SDS011;67668;52.294;4.692;2023-03-01T16:54:24;5.35;;;3.42;;
78382;SDS011;67668;52.294;4.692;2023-03-01T16:59:15;9.37;;;3.90;;
78382;SDS011;67668;52.294;4.692;2023-03-01T17:04:10;6.78;;;4.28;;
78382;SDS011;67668;52.294;4.692;2023-03-01T17:06:37;7.72;;;3.97;;
78382;SDS011;67668;52.294;4.692;2023-03-01T17:11:28;7.68;;;3.90;;
78382;SDS011;67668;52.294;4.692;2023-03-01T17:13:53;8.50;;;4.53;;
78382;SDS011;67668;52.294;4.692;2023-03-01T17:18:44;6.85;;;3.92;;
78382;SDS011;67668;52.294;4.692;2023-03-01T17:23:38;6.95;;;4.10;;
78382;SDS011;67668;52.294;4.692;2023-03-01T17:26:05;6.57;;;4.22;;
78382;SDS011;67668;52.294;4.692;2023-03-01T17:31:00;7.35;;;4.13;;
78382;SDS011;67668;52.294;4.692;2023-03-01T17:33:27;7.65;;;4.57;;
78382;SDS011;67668;52.294;4.692;2023-03-01T17:35:55;8.40;;;4.75;;
78382;SDS011;67668;52.294;4.692;2023-03-01T17:38:21;8.15;;;4.55;;